sensor_id;sensor_type;location;lat;lon;timestamp;temperature;humidity
35313;DHT22;21425;50.454;30.466;2022-12-11T01:46:18;3.10;99.90
35313;DHT22;21425;50.454;30.466;2022-12-11T01:48:43;3.20;99.90
35313;DHT22;21425;50.454;30.466;2022-12-11T01:51:09;3.10;99.90
35313;DHT22;21425;50.454;30.466;2022-12-11T01:53:38;3.10;99.90
35313;DHT22;21425;50.454;30.466;2022-12-11T01:56:05;3.10;99.90
35313;DHT22;21425;50.454;30.466;2022-12-11T01:58:37;3.10;99.90
35313;DHT22;21425;50.454;30.466;2022-12-11T02:01:05;3.20;99.90
35313;DHT22;21425;50.454;30.466;2022-12-11T02:03:31;3.10;99.90
35313;DHT22;21425;50.454;30.466;2022-12-11T02:06:01;3.20;99.90
35313;DHT22;21425;50.454;30.466;2022-12-11T02:08:27;3.10;99.90
35313;DHT22;21425;50.454;30.466;2022-12-11T02:11:05;3.10;99.90
35313;DHT22;21425;50.454;30.466;2022-12-11T02:13:51;3.10;99.90
35313;DHT22;21425;50.454;30.466;2022-12-11T02:23:53;3.10;99.90
35313;DHT22;21425;50.454;30.466;2022-12-11T02:26:35;3.10;99.90
35313;DHT22;21425;50.454;30.466;2022-12-11T02:29:12;3.10;99.90
35313;DHT22;21425;50.454;30.466;2022-12-11T02:32:02;3.30;99.90
35313;DHT22;21425;50.454;30.466;2022-12-11T02:34:36;3.10;99.90
35313;DHT22;21425;50.454;30.466;2022-12-11T02:37:11;4.10;99.90
35313;DHT22;21425;50.454;30.466;2022-12-11T02:39:40;3.00;99.90
35313;DHT22;21425;50.454;30.466;2022-12-11T02:42:08;3.00;99.90
35313;DHT22;21425;50.454;30.466;2022-12-11T02:44:36;3.00;99.90
35313;DHT22;21425;50.454;30.466;2022-12-11T02:47:03;3.10;99.90
35313;DHT22;21425;50.454;30.466;2022-12-11T02:49:32;3.10;99.90
35313;DHT22;21425;50.454;30.466;2022-12-11T02:52:01;3.00;99.90
35313;DHT22;21425;50.454;30.466;2022-12-11T02:54:30;3.00;99.90
35313;DHT22;21425;50.454;30.466;2022-12-11T02:57:02;3.00;99.90
35313;DHT22;21425;50.454;30.466;2022-12-11T02:59:34;3.00;99.90
35313;DHT22;21425;50.454;30.466;2022-12-11T03:02:00;3.00;99.90
35313;DHT22;21425;50.454;30.466;2022-12-11T03:04:27;3.00;99.90
35313;DHT22;21425;50.454;30.466;2022-12-11T03:06:57;3.00;99.90
35313;DHT22;21425;50.454;30.466;2022-12-11T03:09:24;3.00;99.90
35313;DHT22;21425;50.454;30.466;2022-12-11T03:11:51;2.90;99.90
35313;DHT22;21425;50.454;30.466;2022-12-11T03:14:16;2.90;99.90
35313;DHT22;21425;50.454;30.466;2022-12-11T03:22:17;4.70;99.90
35313;DHT22;21425;50.454;30.466;2022-12-11T03:24:54;3.00;99.90
35313;DHT22;21425;50.454;30.466;2022-12-11T03:29:57;2.90;99.90
35313;DHT22;21425;50.454;30.466;2022-12-11T03:32:27;2.80;99.90
35313;DHT22;21425;50.454;30.466;2022-12-11T03:34:59;2.90;99.90
35313;DHT22;21425;50.454;30.466;2022-12-11T03:37:30;2.90;99.90
35313;DHT22;21425;50.454;30.466;2022-12-11T03:40:00;2.90;99.90
35313;DHT22;21425;50.454;30.466;2022-12-11T03:42:28;2.90;99.90
35313;DHT22;21425;50.454;30.466;2022-12-11T03:44:56;2.90;99.90
35313;DHT22;21425;50.454;30.466;2022-12-11T03:47:24;2.90;99.90
35313;DHT22;21425;50.454;30.466;2022-12-11T03:49:52;3.00;99.90
35313;DHT22;21425;50.454;30.466;2022-12-11T03:52:19;3.00;99.90
35313;DHT22;21425;50.454;30.466;2022-12-11T03:54:46;5.40;99.90
35313;DHT22;21425;50.454;30.466;2022-12-11T03:57:15;3.00;99.90
35313;DHT22;21425;50.454;30.466;2022-12-11T03:59:42;3.10;99.90
35313;DHT22;21425;50.454;30.466;2022-12-11T04:02:08;3.20;99.90
35313;DHT22;21425;50.454;30.466;2022-12-11T04:04:36;3.10;99.90
35313;DHT22;21425;50.454;30.466;2022-12-11T04:07:05;3.20;99.90
35313;DHT22;21425;50.454;30.466;2022-12-11T04:09:31;3.20;99.90
35313;DHT22;21425;50.454;30.466;2022-12-11T04:11:56;3.30;99.90
35313;DHT22;21425;50.454;30.466;2022-12-11T04:14:22;3.40;99.90
35313;DHT22;21425;50.454;30.466;2022-12-11T04:17:06;3.20;99.90
35313;DHT22;21425;50.454;30.466;2022-12-11T04:19:31;3.40;99.90
35313;DHT22;21425;50.454;30.466;2022-12-11T04:22:17;3.30;99.90
35313;DHT22;21425;50.454;30.466;2022-12-11T04:25:03;3.30;99.90
35313;DHT22;21425;50.454;30.466;2022-12-11T04:27:29;3.30;99.90
35313;DHT22;21425;50.454;30.466;2022-12-11T04:30:16;3.30;99.90
35313;DHT22;21425;50.454;30.466;2022-12-11T04:32:42;3.40;99.90
35313;DHT22;21425;50.454;30.466;2022-12-11T04:35:09;3.40;99.90
35313;DHT22;21425;50.454;30.466;2022-12-11T04:37:35;4.60;99.90
35313;DHT22;21425;50.454;30.466;2022-12-11T04:40:01;3.30;99.90
35313;DHT22;21425;50.454;30.466;2022-12-11T04:42:26;3.30;99.90
35313;DHT22;21425;50.454;30.466;2022-12-11T04:44:52;3.30;99.90
35313;DHT22;21425;50.454;30.466;2022-12-11T04:47:18;3.30;99.90
35313;DHT22;21425;50.454;30.466;2022-12-11T04:49:43;3.30;99.90
35313;DHT22;21425;50.454;30.466;2022-12-11T04:52:09;3.30;99.90
35313;DHT22;21425;50.454;30.466;2022-12-11T04:54:34;3.40;99.90
35313;DHT22;21425;50.454;30.466;2022-12-11T04:57:00;3.40;99.90
35313;DHT22;21425;50.454;30.466;2022-12-11T04:59:26;3.40;99.90
35313;DHT22;21425;50.454;30.466;2022-12-11T05:01:51;3.30;99.90
35313;DHT22;21425;50.454;30.466;2022-12-11T05:04:17;3.30;99.90
35313;DHT22;21425;50.454;30.466;2022-12-11T05:06:42;3.20;99.90
35313;DHT22;21425;50.454;30.466;2022-12-11T05:09:12;3.10;99.90
35313;DHT22;21425;50.454;30.466;2022-12-11T05:11:37;3.20;99.90
35313;DHT22;21425;50.454;30.466;2022-12-11T05:14:04;3.20;99.90
35313;DHT22;21425;50.454;30.466;2022-12-11T05:16:29;3.10;99.90
35313;DHT22;21425;50.454;30.466;2022-12-11T05:18:55;3.10;99.90
35313;DHT22;21425;50.454;30.466;2022-12-11T05:21:20;3.20;99.90
35313;DHT22;21425;50.454;30.466;2022-12-11T05:23:46;3.10;99.90
35313;DHT22;21425;50.454;30.466;2022-12-11T05:26:18;3.30;99.90
35313;DHT22;21425;50.454;30.466;2022-12-11T05:28:45;3.20;99.90
35313;DHT22;21425;50.454;30.466;2022-12-11T05:31:16;3.30;99.90
35313;DHT22;21425;50.454;30.466;2022-12-11T05:33:43;3.30;99.90
35313;DHT22;21425;50.454;30.466;2022-12-11T05:36:15;3.40;99.90
35313;DHT22;21425;50.454;30.466;2022-12-11T05:38:41;3.30;99.90
35313;DHT22;21425;50.454;30.466;2022-12-11T05:41:07;3.30;99.90
35313;DHT22;21425;50.454;30.466;2022-12-11T05:43:35;3.30;99.90
35313;DHT22;21425;50.454;30.466;2022-12-11T05:48:37;3.40;99.90
35313;DHT22;21425;50.454;30.466;2022-12-11T05:51:03;3.50;99.90
35313;DHT22;21425;50.454;30.466;2022-12-11T05:53:29;3.50;99.90
35313;DHT22;21425;50.454;30.466;2022-12-11T05:56:01;3.60;99.90
35313;DHT22;21425;50.454;30.466;2022-12-11T05:58:27;3.70;99.90
35313;DHT22;21425;50.454;30.466;2022-12-11T06:00:53;3.70;99.90
35313;DHT22;21425;50.454;30.466;2022-12-11T06:03:18;3.90;99.90
35313;DHT22;21425;50.454;30.466;2022-12-11T06:05:44;3.90;99.90
35313;DHT22;21425;50.454;30.466;2022-12-11T06:08:09;3.90;99.90
35313;DHT22;21425;50.454;30.466;2022-12-11T06:10:35;4.00;99.90
35313;DHT22;21425;50.454;30.466;2022-12-11T06:13:00;4.40;99.90
35313;DHT22;21425;50.454;30.466;2022-12-11T06:15:26;4.00;99.90
35313;DHT22;21425;50.454;30.466;2022-12-11T06:17:52;4.00;99.90
35313;DHT22;21425;50.454;30.466;2022-12-11T06:20:17;3.80;99.90
35313;DHT22;21425;50.454;30.466;2022-12-11T06:22:43;3.80;99.90
35313;DHT22;21425;50.454;30.466;2022-12-11T06:25:08;3.90;99.90
35313;DHT22;21425;50.454;30.466;2022-12-11T06:27:34;3.90;99.90
35313;DHT22;21425;50.454;30.466;2022-12-11T06:30:00;3.80;99.90
35313;DHT22;21425;50.454;30.466;2022-12-11T10:49:37;7.80;99.90
35313;DHT22;21425;50.454;30.466;2022-12-11T10:52:11;7.80;99.90
35313;DHT22;21425;50.454;30.466;2022-12-11T10:54:39;9.50;99.90
35313;DHT22;21425;50.454;30.466;2022-12-11T10:57:07;8.00;99.90
35313;DHT22;21425;50.454;30.466;2022-12-11T10:59:43;7.80;99.90
35313;DHT22;21425;50.454;30.466;2022-12-11T11:02:26;7.80;99.90
35313;DHT22;21425;50.454;30.466;2022-12-11T11:04:54;7.80;99.90
35313;DHT22;21425;50.454;30.466;2022-12-11T11:07:26;7.90;99.90
35313;DHT22;21425;50.454;30.466;2022-12-11T11:12:41;8.00;99.90
35313;DHT22;21425;50.454;30.466;2022-12-11T11:15:19;8.00;99.90
35313;DHT22;21425;50.454;30.466;2022-12-11T11:17:52;8.20;99.90
35313;DHT22;21425;50.454;30.466;2022-12-11T11:20:23;8.20;99.90
35313;DHT22;21425;50.454;30.466;2022-12-11T11:22:53;8.10;99.90
35313;DHT22;21425;50.454;30.466;2022-12-11T11:25:24;8.30;99.90
35313;DHT22;21425;50.454;30.466;2022-12-11T11:28:02;8.20;99.90
35313;DHT22;21425;50.454;30.466;2022-12-11T11:30:39;8.30;99.90
35313;DHT22;21425;50.454;30.466;2022-12-11T11:33:20;8.30;99.90
35313;DHT22;21425;50.454;30.466;2022-12-11T11:35:54;8.30;99.90
35313;DHT22;21425;50.454;30.466;2022-12-11T11:38:30;8.40;99.90
35313;DHT22;21425;50.454;30.466;2022-12-11T11:51:28;8.60;99.90
35313;DHT22;21425;50.454;30.466;2022-12-11T11:53:58;8.90;99.90
35313;DHT22;21425;50.454;30.466;2022-12-11T11:56:26;8.60;99.90
35313;DHT22;21425;50.454;30.466;2022-12-11T12:01:42;8.70;99.90
35313;DHT22;21425;50.454;30.466;2022-12-11T12:04:08;8.70;99.90
35313;DHT22;21425;50.454;30.466;2022-12-11T12:17:54;9.00;99.90
35313;DHT22;21425;50.454;30.466;2022-12-11T12:25:59;10.10;99.90
35313;DHT22;21425;50.454;30.466;2022-12-11T12:34:20;9.20;99.90
35313;DHT22;21425;50.454;30.466;2022-12-11T12:37:32;9.30;99.90
35313;DHT22;21425;50.454;30.466;2022-12-11T12:40:28;9.30;99.90
35313;DHT22;21425;50.454;30.466;2022-12-11T12:45:50;9.40;99.90
35313;DHT22;21425;50.454;30.466;2022-12-11T12:48:19;9.40;99.90
35313;DHT22;21425;50.454;30.466;2022-12-11T12:50:48;9.50;99.90
35313;DHT22;21425;50.454;30.466;2022-12-11T12:53:24;9.50;99.90
35313;DHT22;21425;50.454;30.466;2022-12-11T12:55:52;9.50;99.90
35313;DHT22;21425;50.454;30.466;2022-12-11T13:06:33;9.50;99.90
35313;DHT22;21425;50.454;30.466;2022-12-11T13:09:53;9.50;99.90
35313;DHT22;21425;50.454;30.466;2022-12-11T13:12:13;9.50;99.90
35313;DHT22;21425;50.454;30.466;2022-12-11T13:14:39;9.80;99.90
35313;DHT22;21425;50.454;30.466;2022-12-11T13:19:48;9.50;99.90
35313;DHT22;21425;50.454;30.466;2022-12-11T13:35:17;9.50;99.90
35313;DHT22;21425;50.454;30.466;2022-12-11T13:37:44;9.60;99.90
35313;DHT22;21425;50.454;30.466;2022-12-11T13:47:21;9.60;99.90
35313;DHT22;21425;50.454;30.466;2022-12-11T13:49:53;9.80;99.90
35313;DHT22;21425;50.454;30.466;2022-12-11T13:52:24;9.60;99.90
35313;DHT22;21425;50.454;30.466;2022-12-11T13:54:55;9.60;99.90
35313;DHT22;21425;50.454;30.466;2022-12-11T13:57:25;9.60;99.90
35313;DHT22;21425;50.454;30.466;2022-12-11T13:59:55;9.60;99.90
35313;DHT22;21425;50.454;30.466;2022-12-11T14:02:30;10.00;99.90
35313;DHT22;21425;50.454;30.466;2022-12-11T14:04:59;9.70;99.90
35313;DHT22;21425;50.454;30.466;2022-12-11T14:07:29;11.40;99.90
35313;DHT22;21425;50.454;30.466;2022-12-11T14:10:02;9.60;99.90
35313;DHT22;21425;50.454;30.466;2022-12-11T14:12:30;9.70;99.90
35313;DHT22;21425;50.454;30.466;2022-12-11T14:14:58;9.80;99.90
35313;DHT22;21425;50.454;30.466;2022-12-11T14:17:30;10.60;99.90
35313;DHT22;21425;50.454;30.466;2022-12-11T14:19:58;9.70;99.90
35313;DHT22;21425;50.454;30.466;2022-12-11T14:22:26;9.80;99.90
35313;DHT22;21425;50.454;30.466;2022-12-11T14:24:58;9.70;99.90
35313;DHT22;21425;50.454;30.466;2022-12-11T14:27:25;9.80;99.90
35313;DHT22;21425;50.454;30.466;2022-12-11T14:29:51;9.80;99.90
35313;DHT22;21425;50.454;30.466;2022-12-11T14:32:30;11.80;99.90
35313;DHT22;21425;50.454;30.466;2022-12-11T14:34:57;10.30;99.90
35313;DHT22;21425;50.454;30.466;2022-12-11T14:37:25;10.00;99.90
35313;DHT22;21425;50.454;30.466;2022-12-11T14:40:05;9.90;99.90
35313;DHT22;21425;50.454;30.466;2022-12-11T14:42:57;9.90;99.90
35313;DHT22;21425;50.454;30.466;2022-12-11T14:47:56;10.00;99.90
35313;DHT22;21425;50.454;30.466;2022-12-11T14:50:43;10.00;99.90
35313;DHT22;21425;50.454;30.466;2022-12-11T14:53:20;10.10;99.90
35313;DHT22;21425;50.454;30.466;2022-12-11T14:55:48;10.20;99.90
35313;DHT22;21425;50.454;30.466;2022-12-11T14:58:18;10.90;99.90
35313;DHT22;21425;50.454;30.466;2022-12-11T15:01:01;12.10;99.90
35313;DHT22;21425;50.454;30.466;2022-12-11T15:03:35;10.30;99.90
35313;DHT22;21425;50.454;30.466;2022-12-11T15:06:02;11.00;99.90
35313;DHT22;21425;50.454;30.466;2022-12-11T15:08:31;10.30;99.90
35313;DHT22;21425;50.454;30.466;2022-12-11T15:11:08;10.30;99.90
35313;DHT22;21425;50.454;30.466;2022-12-11T15:13:38;10.50;99.90
35313;DHT22;21425;50.454;30.466;2022-12-11T15:16:05;12.80;99.90
35313;DHT22;21425;50.454;30.466;2022-12-11T15:18:39;10.40;99.90
35313;DHT22;21425;50.454;30.466;2022-12-11T15:21:08;10.40;99.90
35313;DHT22;21425;50.454;30.466;2022-12-11T15:23:49;10.40;99.90
35313;DHT22;21425;50.454;30.466;2022-12-11T15:26:16;10.40;99.90
35313;DHT22;21425;50.454;30.466;2022-12-11T15:28:41;10.40;99.90
35313;DHT22;21425;50.454;30.466;2022-12-11T15:31:26;10.60;99.90
35313;DHT22;21425;50.454;30.466;2022-12-11T15:33:52;10.50;99.90
35313;DHT22;21425;50.454;30.466;2022-12-11T15:36:35;10.60;99.90
35313;DHT22;21425;50.454;30.466;2022-12-11T15:39:02;10.40;99.90
35313;DHT22;21425;50.454;30.466;2022-12-11T15:41:29;10.70;99.90
35313;DHT22;21425;50.454;30.466;2022-12-11T15:44:00;10.50;99.90
35313;DHT22;21425;50.454;30.466;2022-12-11T15:46:26;10.50;99.90
35313;DHT22;21425;50.454;30.466;2022-12-11T15:48:52;10.60;99.90
35313;DHT22;21425;50.454;30.466;2022-12-11T15:51:18;11.60;99.90
35313;DHT22;21425;50.454;30.466;2022-12-11T15:53:43;11.70;99.90
35313;DHT22;21425;50.454;30.466;2022-12-11T15:56:13;10.70;99.90
35313;DHT22;21425;50.454;30.466;2022-12-11T15:58:39;10.50;99.90
35313;DHT22;21425;50.454;30.466;2022-12-11T16:01:05;10.50;99.90
35313;DHT22;21425;50.454;30.466;2022-12-11T16:03:30;10.50;99.90
35313;DHT22;21425;50.454;30.466;2022-12-11T16:05:56;11.90;99.90
35313;DHT22;21425;50.454;30.466;2022-12-11T16:08:23;10.50;99.90
35313;DHT22;21425;50.454;30.466;2022-12-11T16:10:51;11.40;99.90
35313;DHT22;21425;50.454;30.466;2022-12-11T16:13:17;11.10;99.90
35313;DHT22;21425;50.454;30.466;2022-12-11T16:15:45;10.50;99.90
35313;DHT22;21425;50.454;30.466;2022-12-11T16:18:13;10.60;99.90
35313;DHT22;21425;50.454;30.466;2022-12-11T16:20:41;11.10;99.90
35313;DHT22;21425;50.454;30.466;2022-12-11T16:23:07;10.50;99.90
35313;DHT22;21425;50.454;30.466;2022-12-11T16:25:32;11.10;99.90
35313;DHT22;21425;50.454;30.466;2022-12-11T16:28:00;10.70;99.90
35313;DHT22;21425;50.454;30.466;2022-12-11T16:30:27;10.60;99.90
35313;DHT22;21425;50.454;30.466;2022-12-11T16:32:53;10.60;99.90
35313;DHT22;21425;50.454;30.466;2022-12-11T16:35:19;10.50;99.90
35313;DHT22;21425;50.454;30.466;2022-12-11T16:37:48;10.60;99.90
35313;DHT22;21425;50.454;30.466;2022-12-11T16:40:13;11.80;99.90
35313;DHT22;21425;50.454;30.466;2022-12-11T16:42:39;10.60;99.90
35313;DHT22;21425;50.454;30.466;2022-12-11T16:45:16;10.60;99.90
35313;DHT22;21425;50.454;30.466;2022-12-11T16:47:41;10.60;99.90
35313;DHT22;21425;50.454;30.466;2022-12-11T16:50:08;10.60;99.90
35313;DHT22;21425;50.454;30.466;2022-12-11T16:52:34;10.60;99.90
35313;DHT22;21425;50.454;30.466;2022-12-11T16:54:59;12.10;99.90
35313;DHT22;21425;50.454;30.466;2022-12-11T16:57:25;12.10;99.90
35313;DHT22;21425;50.454;30.466;2022-12-11T16:59:51;10.60;99.90
35313;DHT22;21425;50.454;30.466;2022-12-11T17:02:17;10.60;99.90
35313;DHT22;21425;50.454;30.466;2022-12-11T17:04:43;10.70;99.90
35313;DHT22;21425;50.454;30.466;2022-12-11T17:07:10;10.70;99.90
35313;DHT22;21425;50.454;30.466;2022-12-11T17:09:36;10.70;99.90
35313;DHT22;21425;50.454;30.466;2022-12-11T17:12:03;10.70;99.90
35313;DHT22;21425;50.454;30.466;2022-12-11T17:14:29;10.70;99.90
35313;DHT22;21425;50.454;30.466;2022-12-11T17:16:55;10.70;99.90
35313;DHT22;21425;50.454;30.466;2022-12-11T17:19:21;10.80;99.90
35313;DHT22;21425;50.454;30.466;2022-12-11T17:21:47;10.70;99.90
35313;DHT22;21425;50.454;30.466;2022-12-11T17:24:15;10.70;99.90
35313;DHT22;21425;50.454;30.466;2022-12-11T17:26:41;10.70;99.90
35313;DHT22;21425;50.454;30.466;2022-12-11T17:29:06;10.80;99.90
35313;DHT22;21425;50.454;30.466;2022-12-11T17:31:32;10.80;99.90
35313;DHT22;21425;50.454;30.466;2022-12-11T17:33:58;10.70;99.90
35313;DHT22;21425;50.454;30.466;2022-12-11T17:36:25;10.70;99.90
35313;DHT22;21425;50.454;30.466;2022-12-11T17:38:52;10.80;99.90
35313;DHT22;21425;50.454;30.466;2022-12-11T17:41:18;11.10;99.90
35313;DHT22;21425;50.454;30.466;2022-12-11T17:43:45;10.70;99.90
35313;DHT22;21425;50.454;30.466;2022-12-11T17:46:11;10.70;99.90
35313;DHT22;21425;50.454;30.466;2022-12-11T17:48:38;10.70;99.90
35313;DHT22;21425;50.454;30.466;2022-12-11T17:51:06;10.70;99.90
35313;DHT22;21425;50.454;30.466;2022-12-11T17:53:33;12.60;99.90
35313;DHT22;21425;50.454;30.466;2022-12-11T17:56:04;10.80;99.90
35313;DHT22;21425;50.454;30.466;2022-12-11T17:58:30;12.20;99.90
35313;DHT22;21425;50.454;30.466;2022-12-11T18:00:57;10.90;99.90
35313;DHT22;21425;50.454;30.466;2022-12-11T18:03:24;10.80;99.90
35313;DHT22;21425;50.454;30.466;2022-12-11T18:05:53;10.80;99.90
35313;DHT22;21425;50.454;30.466;2022-12-11T18:08:26;10.80;99.90
35313;DHT22;21425;50.454;30.466;2022-12-11T18:10:55;10.70;99.90
35313;DHT22;21425;50.454;30.466;2022-12-11T18:13:21;10.70;99.90
35313;DHT22;21425;50.454;30.466;2022-12-11T18:16:05;10.70;99.90
35313;DHT22;21425;50.454;30.466;2022-12-11T18:18:31;10.80;99.90
35313;DHT22;21425;50.454;30.466;2022-12-11T18:20:57;12.20;99.90
35313;DHT22;21425;50.454;30.466;2022-12-11T18:23:23;10.80;99.90
35313;DHT22;21425;50.454;30.466;2022-12-11T18:25:49;10.80;99.90
35313;DHT22;21425;50.454;30.466;2022-12-11T18:28:14;10.80;99.90
35313;DHT22;21425;50.454;30.466;2022-12-11T18:30:40;10.80;99.90
35313;DHT22;21425;50.454;30.466;2022-12-11T18:33:05;11.40;99.90
35313;DHT22;21425;50.454;30.466;2022-12-11T18:35:31;10.80;99.90
35313;DHT22;21425;50.454;30.466;2022-12-11T18:37:56;10.80;99.90
35313;DHT22;21425;50.454;30.466;2022-12-11T18:40:22;10.80;99.90
35313;DHT22;21425;50.454;30.466;2022-12-11T18:42:48;10.80;99.90
35313;DHT22;21425;50.454;30.466;2022-12-11T18:45:13;10.80;99.90
35313;DHT22;21425;50.454;30.466;2022-12-11T18:47:39;10.80;99.90
35313;DHT22;21425;50.454;30.466;2022-12-11T18:50:05;11.00;99.90
35313;DHT22;21425;50.454;30.466;2022-12-11T18:52:31;10.80;99.90
35313;DHT22;21425;50.454;30.466;2022-12-11T18:54:56;10.80;99.90
35313;DHT22;21425;50.454;30.466;2022-12-11T18:57:22;10.80;99.90
35313;DHT22;21425;50.454;30.466;2022-12-11T18:59:51;9.70;99.90
35313;DHT22;21425;50.454;30.466;2022-12-11T19:02:18;9.90;99.90
35313;DHT22;21425;50.454;30.466;2022-12-11T19:04:44;8.70;99.90
35313;DHT22;21425;50.454;30.466;2022-12-11T19:07:09;8.40;99.90
35313;DHT22;21425;50.454;30.466;2022-12-11T19:09:35;8.20;99.90
35313;DHT22;21425;50.454;30.466;2022-12-11T19:12:01;7.90;99.90
35313;DHT22;21425;50.454;30.466;2022-12-11T19:14:26;8.50;99.90
35313;DHT22;21425;50.454;30.466;2022-12-11T19:16:52;7.30;99.90
35313;DHT22;21425;50.454;30.466;2022-12-11T19:19:19;8.50;99.90
35313;DHT22;21425;50.454;30.466;2022-12-11T19:21:46;7.10;99.90
35313;DHT22;21425;50.454;30.466;2022-12-11T19:24:15;7.10;99.90
35313;DHT22;21425;50.454;30.466;2022-12-11T19:26:41;7.00;99.90
35313;DHT22;21425;50.454;30.466;2022-12-11T19:29:09;7.80;99.90
35313;DHT22;21425;50.454;30.466;2022-12-11T19:31:37;6.90;99.90
35313;DHT22;21425;50.454;30.466;2022-12-11T19:34:03;6.80;99.90
35313;DHT22;21425;50.454;30.466;2022-12-11T19:36:29;7.40;99.90
35313;DHT22;21425;50.454;30.466;2022-12-11T19:38:56;8.20;99.90
35313;DHT22;21425;50.454;30.466;2022-12-11T19:41:24;6.30;99.90
35313;DHT22;21425;50.454;30.466;2022-12-11T19:43:54;6.30;99.90
35313;DHT22;21425;50.454;30.466;2022-12-11T19:46:21;6.20;99.90
35313;DHT22;21425;50.454;30.466;2022-12-11T19:48:49;7.20;99.90
35313;DHT22;21425;50.454;30.466;2022-12-11T19:51:18;5.90;99.90
35313;DHT22;21425;50.454;30.466;2022-12-11T19:53:44;8.30;99.90
35313;DHT22;21425;50.454;30.466;2022-12-11T19:56:11;5.60;99.90
35313;DHT22;21425;50.454;30.466;2022-12-11T19:58:37;5.30;99.90
35313;DHT22;21425;50.454;30.466;2022-12-11T20:01:03;5.40;99.90
35313;DHT22;21425;50.454;30.466;2022-12-11T20:03:29;5.30;99.90
35313;DHT22;21425;50.454;30.466;2022-12-11T20:05:59;5.30;99.90
35313;DHT22;21425;50.454;30.466;2022-12-11T20:08:25;5.10;99.90
35313;DHT22;21425;50.454;30.466;2022-12-11T20:10:51;5.10;99.90
35313;DHT22;21425;50.454;30.466;2022-12-11T20:13:17;5.00;99.90
35313;DHT22;21425;50.454;30.466;2022-12-11T20:15:45;6.80;99.90
35313;DHT22;21425;50.454;30.466;2022-12-11T20:18:10;4.80;99.90
35313;DHT22;21425;50.454;30.466;2022-12-11T20:20:38;4.90;99.90
35313;DHT22;21425;50.454;30.466;2022-12-11T20:23:03;4.60;99.90
35313;DHT22;21425;50.454;30.466;2022-12-11T20:25:29;4.50;99.90
35313;DHT22;21425;50.454;30.466;2022-12-11T20:27:55;4.60;99.90
35313;DHT22;21425;50.454;30.466;2022-12-11T20:30:21;4.50;99.90
35313;DHT22;21425;50.454;30.466;2022-12-11T20:32:51;4.50;99.90
35313;DHT22;21425;50.454;30.466;2022-12-11T20:35:17;4.30;99.90
35313;DHT22;21425;50.454;30.466;2022-12-11T20:37:43;4.30;99.90
35313;DHT22;21425;50.454;30.466;2022-12-11T20:40:09;4.20;99.90
35313;DHT22;21425;50.454;30.466;2022-12-11T20:42:35;4.20;99.90
35313;DHT22;21425;50.454;30.466;2022-12-11T20:45:01;4.30;99.90
35313;DHT22;21425;50.454;30.466;2022-12-11T20:47:26;4.30;99.90
35313;DHT22;21425;50.454;30.466;2022-12-11T20:49:52;6.00;99.90
35313;DHT22;21425;50.454;30.466;2022-12-11T20:52:18;4.10;99.90
35313;DHT22;21425;50.454;30.466;2022-12-11T20:54:44;4.20;99.90
35313;DHT22;21425;50.454;30.466;2022-12-11T20:57:10;4.10;99.90
35313;DHT22;21425;50.454;30.466;2022-12-11T20:59:36;4.00;99.90
35313;DHT22;21425;50.454;30.466;2022-12-11T21:02:03;4.40;99.90
35313;DHT22;21425;50.454;30.466;2022-12-11T21:04:29;3.90;99.90
35313;DHT22;21425;50.454;30.466;2022-12-11T21:06:55;4.00;99.90
35313;DHT22;21425;50.454;30.466;2022-12-11T21:09:24;3.80;99.90
35313;DHT22;21425;50.454;30.466;2022-12-11T21:11:50;3.80;99.90
35313;DHT22;21425;50.454;30.466;2022-12-11T21:14:16;3.90;99.90
35313;DHT22;21425;50.454;30.466;2022-12-11T21:16:42;3.70;99.90
35313;DHT22;21425;50.454;30.466;2022-12-11T21:19:09;5.80;99.90
35313;DHT22;21425;50.454;30.466;2022-12-11T21:21:35;3.60;99.90
35313;DHT22;21425;50.454;30.466;2022-12-11T21:24:04;3.60;99.90
35313;DHT22;21425;50.454;30.466;2022-12-11T21:26:30;3.60;99.90
35313;DHT22;21425;50.454;30.466;2022-12-11T21:28:56;3.50;99.90
35313;DHT22;21425;50.454;30.466;2022-12-11T21:31:21;3.50;99.90
35313;DHT22;21425;50.454;30.466;2022-12-11T21:33:47;3.50;99.90
35313;DHT22;21425;50.454;30.466;2022-12-11T21:36:13;3.50;99.90
35313;DHT22;21425;50.454;30.466;2022-12-11T21:38:41;3.40;99.90
35313;DHT22;21425;50.454;30.466;2022-12-11T21:41:10;3.30;99.90
35313;DHT22;21425;50.454;30.466;2022-12-11T21:43:38;3.30;99.90
35313;DHT22;21425;50.454;30.466;2022-12-11T21:46:04;3.10;99.90
35313;DHT22;21425;50.454;30.466;2022-12-11T21:48:29;2.90;99.90
35313;DHT22;21425;50.454;30.466;2022-12-11T21:51:06;2.90;99.90
35313;DHT22;21425;50.454;30.466;2022-12-11T21:53:32;2.80;99.90
35313;DHT22;21425;50.454;30.466;2022-12-11T21:55:58;2.90;99.90
35313;DHT22;21425;50.454;30.466;2022-12-11T21:58:23;2.80;99.90
